Coeymans Hollow, NY (12046)

11:16 AM EDT on September 04, 2015 (GMT -0400)
Ravena | | Change Station
CLOSE
Current Station
Personal Weather Station
Location: Ravena, NY
Elevation: 171 ft
Nearby Weather Stations

Elev 171 ft 42.49 °N, 73.82 °W | Updated 25 seconds ago

Mostly Cloudy
Mostly Cloudy
75.7 °F
Feels Like 78 °F
N
3.8
Wind Variable Wind from WSW
Gusts 3.8 mph

Today
High -- | Low -- °F
--% Chance of Precip.
Yesterday
High -- | Low -- °F
Precip. -- in
6:23 AM 7:25 PM
Waning Gibbous, 58% visible
Pressure 30.14 in
Visibility 10.0 miles
Clouds Mostly Cloudy 3900 ft
Heat Index 78 °F
Dew Point 61 °F
Humidity 61%
Rainfall 0.00 in
Snow Depth Not available.
UV 3 out of 12
Pollen 8.80 out of 12
Air Quality Not available.
Flu Activity Not available.
METAR KALB 041451Z VRB03KT 10SM BKN039 23/14 A3014 RMK AO2 SLP204 T02330144 51014
Pressure 30.14 in
Visibility 10.0 miles
Clouds Mostly Cloudy 3900 ft
Heat Index 78 °F
Dew Point 61 °F
Humidity 61%
Rainfall 0.00 in
Snow Depth Not available.
UV 3 out of 12
Pollen 8.80 out of 12
Air Quality Not available.
Flu Activity Not available.
METAR KALB 041451Z VRB03KT 10SM BKN039 23/14 A3014 RMK AO2 SLP204 T02330144 51014

10-Day Weather Forecast

×

Almanac

Astronomy

Sep. 04, 2015 Rise Set
Actual Time
Civil Twilight
Nautical Twilight
Astronomical Twilight
Moon
Length of Visible Light
Length of Day
Tomorrow will be .
, % of the Moon is Illuminated

Today's Extremes

State Highs State Lows

Community

WunderPhotos

Upload Photos

1,852,190 photos uploaded!

WunderBlogs® & News

Nearby

Air Quality

  Air Quality AQ Index Pollutant
Not available.

Snow Depth

Station Depth Elevation

Earthquake Activity

City Distance Mag. Time & Date
Minimum magnitude displayed is 2.5.

Coastal Water Temperatures

Place Temperature

Stations

Nearby Weather Stations

Station Location Temp. Windchill Dew Point Humidity Wind Precip. Elev Updated Type